Terminal Aerodrome Forecast
Issued by NWS Central Illinois

Home | Current Version | Previous Version | Text Only | Print | Product List | Glossary On
Versions: 1 2 3 4 5 6 7 8 9 10 11 12 13 14
215
FTUS43 KILX 201733
TAFSPI
TAF
KSPI 201733Z 2018/2118 24012KT P6SM FEW050
     FM210000 21005KT P6SM SKC
     FM211500 24008KT P6SM SCT050=

USA.gov is the U.S. government's official web portal to all federal, state and local government web resources and services.